KGTF/GTF METAR and TAF weather

Enter ICAO airport designator
Station Type Date Time Source
KGTF METAR 2021/01/16 01:53 UTC NOAA

KGTF 160153Z 24017KT 10SM CLR 05/M03 A3003 RMK AO2 SLP195 T00501028 $


Station Type Date Time Source
KGTF Decoded METAR 2021/01/16 01:53 UTC NOAA

GREAT FALLS INTERNATIONAL, MT, United States (KGTF) 47-28N 111-23W 1119M
Jan 15, 2021 - 08:53 PM EST / 2021.01.16 0153 UTC
Wind: from the WSW (240 degrees) at 20 MPH (17 KT):0
Visibility: 10 mile(s):0
Sky conditions: clear
Temperature: 41.0 F (5.0 C)
Dew Point: 27.0 F (-2.8 C)
Relative Humidity: 57%
Pressure (altimeter): 30.03 in. Hg (1016 hPa)
ob: KGTF 160153Z 24017KT 10SM CLR 05/M03 A3003 RMK AO2 SLP195 T00501028
cycle: 2

Station Type Date Time Source
KGTF TAF 2021/01/15 18:27 UTC NOAA

TAF KGTF 151725Z 1518/1618 22016G28KT P6SM BKN120
FM152300 23014KT P6SM VCSH SCT025 BKN035
FM160700 25008KT P6SM FEW045 SCT050

Example: see airport list